sensor_id;sensor_type;location;lat;lon;timestamp;pressure;altitude;pressure_sealevel;temperature;humidity
60019;BME280;45870;42.528;26.740;2023-07-28T00:01:25;99563.72;;;23.09;41.48
60019;BME280;45870;42.528;26.740;2023-07-28T00:03:51;99529.94;;;22.78;41.91
60019;BME280;45870;42.528;26.740;2023-07-28T00:06:19;99572.47;;;22.41;41.92
60019;BME280;45870;42.528;26.740;2023-07-28T00:08:44;99572.94;;;21.76;43.11
60019;BME280;45870;42.528;26.740;2023-07-28T00:11:11;99570.25;;;21.85;43.42
60019;BME280;45870;42.528;26.740;2023-07-28T00:13:38;99578.31;;;21.95;42.58
60019;BME280;45870;42.528;26.740;2023-07-28T00:16:05;99575.03;;;22.37;42.19
60019;BME280;45870;42.528;26.740;2023-07-28T00:18:30;99573.13;;;21.80;43.67
60019;BME280;45870;42.528;26.740;2023-07-28T00:20:56;99570.00;;;21.73;43.67
60019;BME280;45870;42.528;26.740;2023-07-28T00:23:22;99568.72;;;22.15;42.66
60019;BME280;45870;42.528;26.740;2023-07-28T00:25:47;99577.81;;;22.46;41.46
60019;BME280;45870;42.528;26.740;2023-07-28T00:28:13;99580.00;;;22.27;42.48
60019;BME280;45870;42.528;26.740;2023-07-28T00:30:39;99576.81;;;21.75;43.96
60019;BME280;45870;42.528;26.740;2023-07-28T00:33:05;99530.53;;;21.33;43.82
60019;BME280;45870;42.528;26.740;2023-07-28T00:35:31;99588.91;;;21.38;43.94
60019;BME280;45870;42.528;26.740;2023-07-28T00:37:56;99588.53;;;22.03;42.67
60019;BME280;45870;42.528;26.740;2023-07-28T00:40:22;99588.09;;;22.63;42.02
60019;BME280;45870;42.528;26.740;2023-07-28T00:42:48;99597.75;;;23.13;40.83
60019;BME280;45870;42.528;26.740;2023-07-28T00:45:14;99559.81;;;22.62;41.68
60019;BME280;45870;42.528;26.740;2023-07-28T00:47:40;99590.97;;;22.80;41.55
60019;BME280;45870;42.528;26.740;2023-07-28T00:50:08;99577.38;;;22.83;40.62
60019;BME280;45870;42.528;26.740;2023-07-28T00:52:34;99591.66;;;22.94;40.24
60019;BME280;45870;42.528;26.740;2023-07-28T00:55:00;99588.38;;;22.75;41.06
60019;BME280;45870;42.528;26.740;2023-07-28T00:57:26;99537.50;;;22.41;41.96
60019;BME280;45870;42.528;26.740;2023-07-28T00:59:52;99554.16;;;22.36;42.49
60019;BME280;45870;42.528;26.740;2023-07-28T01:02:19;99529.44;;;21.20;44.42
60019;BME280;45870;42.528;26.740;2023-07-28T01:04:46;99574.03;;;20.58;45.81
60019;BME280;45870;42.528;26.740;2023-07-28T01:10:18;99586.63;;;20.72;44.95
60019;BME280;45870;42.528;26.740;2023-07-28T01:12:47;99590.13;;;21.32;44.06
60019;BME280;45870;42.528;26.740;2023-07-28T01:15:13;99587.03;;;21.97;42.17
60019;BME280;45870;42.528;26.740;2023-07-28T01:17:41;99558.75;;;22.19;40.67
60019;BME280;45870;42.528;26.740;2023-07-28T01:20:07;99573.50;;;22.84;39.18
60019;BME280;45870;42.528;26.740;2023-07-28T01:25:14;99592.09;;;23.75;37.36
60019;BME280;45870;42.528;26.740;2023-07-28T01:27:43;99592.47;;;23.34;38.19
60019;BME280;45870;42.528;26.740;2023-07-28T01:30:10;99553.72;;;23.30;37.52
60019;BME280;45870;42.528;26.740;2023-07-28T01:32:36;99597.44;;;23.71;37.04
60019;BME280;45870;42.528;26.740;2023-07-28T01:35:03;99596.91;;;23.69;37.41
60019;BME280;45870;42.528;26.740;2023-07-28T01:37:29;99596.44;;;23.50;38.47
60019;BME280;45870;42.528;26.740;2023-07-28T01:39:55;99597.69;;;23.44;38.03
60019;BME280;45870;42.528;26.740;2023-07-28T01:42:21;99593.41;;;23.29;39.31
60019;BME280;45870;42.528;26.740;2023-07-28T01:44:46;99596.63;;;23.14;39.91
60019;BME280;45870;42.528;26.740;2023-07-28T01:47:12;99596.56;;;23.45;37.60
60019;BME280;45870;42.528;26.740;2023-07-28T01:49:37;99596.44;;;23.11;38.84
60019;BME280;45870;42.528;26.740;2023-07-28T01:52:03;99605.22;;;23.21;37.94
60019;BME280;45870;42.528;26.740;2023-07-28T01:54:29;99602.31;;;23.26;38.28
60019;BME280;45870;42.528;26.740;2023-07-28T01:56:55;99604.00;;;22.97;38.95
60019;BME280;45870;42.528;26.740;2023-07-28T01:59:20;99607.94;;;23.04;40.10
60019;BME280;45870;42.528;26.740;2023-07-28T02:01:47;99608.75;;;22.74;39.83
60019;BME280;45870;42.528;26.740;2023-07-28T02:04:12;99613.84;;;22.89;40.33
60019;BME280;45870;42.528;26.740;2023-07-28T02:06:38;99608.75;;;22.74;40.69
60019;BME280;45870;42.528;26.740;2023-07-28T02:09:04;99597.53;;;21.95;43.07
60019;BME280;45870;42.528;26.740;2023-07-28T02:11:29;99579.09;;;21.96;42.91
60019;BME280;45870;42.528;26.740;2023-07-28T02:13:55;99624.66;;;22.32;42.43
60019;BME280;45870;42.528;26.740;2023-07-28T02:16:20;99619.41;;;22.22;42.62
60019;BME280;45870;42.528;26.740;2023-07-28T02:18:46;99616.63;;;22.00;42.97
60019;BME280;45870;42.528;26.740;2023-07-28T02:21:12;99615.97;;;21.95;42.93
60019;BME280;45870;42.528;26.740;2023-07-28T02:23:37;99617.81;;;21.72;43.53
60019;BME280;45870;42.528;26.740;2023-07-28T02:26:03;99628.09;;;21.80;43.16
60019;BME280;45870;42.528;26.740;2023-07-28T02:28:29;99625.56;;;21.70;43.56
60019;BME280;45870;42.528;26.740;2023-07-28T02:30:54;99611.88;;;21.29;44.04
60019;BME280;45870;42.528;26.740;2023-07-28T02:33:20;99627.03;;;21.26;43.81
60019;BME280;45870;42.528;26.740;2023-07-28T02:35:45;99629.84;;;21.08;44.41
60019;BME280;45870;42.528;26.740;2023-07-28T02:38:11;99629.16;;;21.29;44.09
60019;BME280;45870;42.528;26.740;2023-07-28T02:40:37;99633.44;;;21.49;43.91
60019;BME280;45870;42.528;26.740;2023-07-28T02:43:02;99624.69;;;21.47;43.67
60019;BME280;45870;42.528;26.740;2023-07-28T02:45:28;99613.50;;;21.43;43.75
60019;BME280;45870;42.528;26.740;2023-07-28T02:47:53;99630.19;;;21.20;44.19
60019;BME280;45870;42.528;26.740;2023-07-28T02:50:19;99640.97;;;21.16;44.97
60019;BME280;45870;42.528;26.740;2023-07-28T02:52:45;99601.28;;;20.81;45.06
60019;BME280;45870;42.528;26.740;2023-07-28T02:55:10;99621.31;;;20.96;44.80
60019;BME280;45870;42.528;26.740;2023-07-28T02:57:36;99640.50;;;20.82;45.75
60019;BME280;45870;42.528;26.740;2023-07-28T03:00:01;99646.75;;;21.15;45.15
60019;BME280;45870;42.528;26.740;2023-07-28T03:02:28;99646.84;;;20.96;45.66
60019;BME280;45870;42.528;26.740;2023-07-28T03:04:54;99653.44;;;20.30;47.09
60019;BME280;45870;42.528;26.740;2023-07-28T03:07:19;99656.88;;;20.87;45.56
60019;BME280;45870;42.528;26.740;2023-07-28T03:09:45;99661.66;;;20.81;45.84
60019;BME280;45870;42.528;26.740;2023-07-28T03:12:11;99659.38;;;20.37;47.25
60019;BME280;45870;42.528;26.740;2023-07-28T03:14:36;99656.84;;;20.41;47.53
60019;BME280;45870;42.528;26.740;2023-07-28T03:17:02;99664.28;;;20.86;46.72
60019;BME280;45870;42.528;26.740;2023-07-28T03:19:27;99667.44;;;20.93;47.04
60019;BME280;45870;42.528;26.740;2023-07-28T03:21:53;99663.59;;;21.76;45.19
60019;BME280;45870;42.528;26.740;2023-07-28T03:24:19;99664.22;;;22.67;42.82
60019;BME280;45870;42.528;26.740;2023-07-28T03:26:44;99671.69;;;23.85;39.88
60019;BME280;45870;42.528;26.740;2023-07-28T03:29:10;99665.69;;;24.86;37.54
60019;BME280;45870;42.528;26.740;2023-07-28T03:31:35;99681.53;;;25.44;36.80
60019;BME280;45870;42.528;26.740;2023-07-28T03:34:02;99664.94;;;25.82;35.58
60019;BME280;45870;42.528;26.740;2023-07-28T03:36:28;99675.34;;;26.47;34.54
60019;BME280;45870;42.528;26.740;2023-07-28T03:38:54;99687.63;;;28.37;31.56
60019;BME280;45870;42.528;26.740;2023-07-28T03:41:20;99680.63;;;28.55;29.83
60019;BME280;45870;42.528;26.740;2023-07-28T03:43:46;99684.44;;;29.53;29.14
60019;BME280;45870;42.528;26.740;2023-07-28T03:46:11;99690.84;;;31.42;26.47
60019;BME280;45870;42.528;26.740;2023-07-28T03:48:37;99688.63;;;30.48;27.83
60019;BME280;45870;42.528;26.740;2023-07-28T03:51:03;99684.72;;;30.91;27.31
60019;BME280;45870;42.528;26.740;2023-07-28T03:53:29;99704.59;;;31.08;26.77
60019;BME280;45870;42.528;26.740;2023-07-28T03:55:54;99701.56;;;31.17;26.27
60019;BME280;45870;42.528;26.740;2023-07-28T03:58:26;99707.38;;;32.59;24.90
60019;BME280;45870;42.528;26.740;2023-07-28T04:00:53;99713.88;;;32.37;25.18
60019;BME280;45870;42.528;26.740;2023-07-28T04:03:19;99710.28;;;33.43;23.68
60019;BME280;45870;42.528;26.740;2023-07-28T04:05:44;99717.22;;;33.60;23.83
60019;BME280;45870;42.528;26.740;2023-07-28T04:08:10;99718.22;;;34.43;22.98
60019;BME280;45870;42.528;26.740;2023-07-28T04:10:36;99717.72;;;36.13;21.48
60019;BME280;45870;42.528;26.740;2023-07-28T04:13:01;99697.81;;;36.80;20.33
60019;BME280;45870;42.528;26.740;2023-07-28T04:15:27;99719.75;;;38.13;18.99
60019;BME280;45870;42.528;26.740;2023-07-28T04:17:52;99705.22;;;38.52;18.99
60019;BME280;45870;42.528;26.740;2023-07-28T04:20:18;99707.88;;;39.73;17.02
60019;BME280;45870;42.528;26.740;2023-07-28T04:22:44;99716.38;;;40.59;16.99
60019;BME280;45870;42.528;26.740;2023-07-28T04:25:09;99716.44;;;40.55;16.71
60019;BME280;45870;42.528;26.740;2023-07-28T04:27:35;99727.41;;;41.93;15.96
60019;BME280;45870;42.528;26.740;2023-07-28T04:30:00;99732.94;;;42.29;15.44
60019;BME280;45870;42.528;26.740;2023-07-28T04:32:26;99714.53;;;41.56;15.64
60019;BME280;45870;42.528;26.740;2023-07-28T04:34:52;99698.72;;;40.31;16.00
60019;BME280;45870;42.528;26.740;2023-07-28T04:37:18;99723.34;;;38.51;17.39
60019;BME280;45870;42.528;26.740;2023-07-28T04:39:44;99711.94;;;36.69;19.15
60019;BME280;45870;42.528;26.740;2023-07-28T04:42:10;99728.75;;;36.83;19.36
60019;BME280;45870;42.528;26.740;2023-07-28T04:44:37;99720.94;;;35.93;20.13
60019;BME280;45870;42.528;26.740;2023-07-28T04:47:03;99711.69;;;36.14;19.80
60019;BME280;45870;42.528;26.740;2023-07-28T04:49:29;99663.13;;;34.86;19.96
60019;BME280;45870;42.528;26.740;2023-07-28T04:51:55;99707.94;;;34.69;22.16
60019;BME280;45870;42.528;26.740;2023-07-28T04:54:20;99708.44;;;36.30;19.20
60019;BME280;45870;42.528;26.740;2023-07-28T04:56:46;99684.94;;;38.60;17.73
60019;BME280;45870;42.528;26.740;2023-07-28T04:59:12;99718.16;;;35.79;19.76
60019;BME280;45870;42.528;26.740;2023-07-28T05:01:38;99700.69;;;38.24;17.10
60019;BME280;45870;42.528;26.740;2023-07-28T05:04:04;99683.25;;;38.96;16.56
60019;BME280;45870;42.528;26.740;2023-07-28T05:06:29;99714.13;;;39.84;15.75
60019;BME280;45870;42.528;26.740;2023-07-28T05:08:55;99699.50;;;40.71;15.38
60019;BME280;45870;42.528;26.740;2023-07-28T05:11:20;99726.28;;;40.47;14.61
60019;BME280;45870;42.528;26.740;2023-07-28T05:13:46;99730.13;;;38.57;17.02
60019;BME280;45870;42.528;26.740;2023-07-28T05:16:12;99722.69;;;40.04;15.66
60019;BME280;45870;42.528;26.740;2023-07-28T05:18:37;99728.66;;;37.05;18.39
60019;BME280;45870;42.528;26.740;2023-07-28T05:21:03;99727.66;;;38.92;17.03
60019;BME280;45870;42.528;26.740;2023-07-28T05:23:28;99744.75;;;39.39;15.58
60019;BME280;45870;42.528;26.740;2023-07-28T05:25:54;99740.63;;;39.93;15.38
60019;BME280;45870;42.528;26.740;2023-07-28T05:28:20;99727.41;;;38.83;16.59
60019;BME280;45870;42.528;26.740;2023-07-28T05:30:45;99742.38;;;38.77;17.37
60019;BME280;45870;42.528;26.740;2023-07-28T05:33:11;99746.53;;;38.65;17.40
60019;BME280;45870;42.528;26.740;2023-07-28T05:35:37;99744.97;;;39.98;16.79
60019;BME280;45870;42.528;26.740;2023-07-28T05:38:03;99751.06;;;40.63;15.39
60019;BME280;45870;42.528;26.740;2023-07-28T05:40:28;99720.31;;;39.52;16.25
60019;BME280;45870;42.528;26.740;2023-07-28T05:42:54;99750.78;;;40.93;14.60
60019;BME280;45870;42.528;26.740;2023-07-28T05:45:19;99749.06;;;39.97;16.69
60019;BME280;45870;42.528;26.740;2023-07-28T05:47:45;99756.88;;;41.47;14.85
60019;BME280;45870;42.528;26.740;2023-07-28T05:50:11;99749.84;;;40.64;15.30
60019;BME280;45870;42.528;26.740;2023-07-28T05:52:37;99744.69;;;40.16;15.61
60019;BME280;45870;42.528;26.740;2023-07-28T05:55:02;99744.69;;;38.52;16.55
60019;BME280;45870;42.528;26.740;2023-07-28T05:57:28;99753.19;;;40.35;15.32
60019;BME280;45870;42.528;26.740;2023-07-28T05:59:54;99742.25;;;38.87;16.98
60019;BME280;45870;42.528;26.740;2023-07-28T06:02:20;99758.22;;;42.07;13.78
60019;BME280;45870;42.528;26.740;2023-07-28T06:04:45;99739.72;;;40.82;14.90
60019;BME280;45870;42.528;26.740;2023-07-28T06:07:11;99743.50;;;38.12;16.38
60019;BME280;45870;42.528;26.740;2023-07-28T06:09:37;99713.97;;;39.71;15.60
60019;BME280;45870;42.528;26.740;2023-07-28T06:12:03;99732.41;;;38.69;17.14
60019;BME280;45870;42.528;26.740;2023-07-28T06:14:29;99733.00;;;40.57;14.71
60019;BME280;45870;42.528;26.740;2023-07-28T06:16:54;99746.69;;;43.51;12.23
60019;BME280;45870;42.528;26.740;2023-07-28T06:19:20;99748.28;;;40.99;14.87
60019;BME280;45870;42.528;26.740;2023-07-28T06:21:50;99716.63;;;38.04;16.45
60019;BME280;45870;42.528;26.740;2023-07-28T06:24:17;99747.94;;;39.91;15.83
60019;BME280;45870;42.528;26.740;2023-07-28T06:26:42;99754.94;;;44.52;11.26
60019;BME280;45870;42.528;26.740;2023-07-28T06:29:08;99748.09;;;40.27;15.00
60019;BME280;45870;42.528;26.740;2023-07-28T06:31:34;99746.72;;;37.66;16.14
60019;BME280;45870;42.528;26.740;2023-07-28T06:33:59;99749.91;;;40.60;13.55
60019;BME280;45870;42.528;26.740;2023-07-28T06:36:25;99747.50;;;39.69;15.10
60019;BME280;45870;42.528;26.740;2023-07-28T06:38:51;99745.81;;;36.16;19.24
60019;BME280;45870;42.528;26.740;2023-07-28T06:41:18;99744.63;;;36.06;18.01
60019;BME280;45870;42.528;26.740;2023-07-28T06:43:43;99750.41;;;36.90;16.70
60019;BME280;45870;42.528;26.740;2023-07-28T06:46:09;99752.13;;;37.42;17.77
60019;BME280;45870;42.528;26.740;2023-07-28T06:48:35;99748.72;;;39.68;16.13
60019;BME280;45870;42.528;26.740;2023-07-28T06:51:00;99755.72;;;37.50;15.98
60019;BME280;45870;42.528;26.740;2023-07-28T06:53:26;99755.50;;;40.64;13.70
60019;BME280;45870;42.528;26.740;2023-07-28T06:55:52;99757.69;;;36.80;17.81
60019;BME280;45870;42.528;26.740;2023-07-28T06:58:17;99745.19;;;39.07;15.61
60019;BME280;45870;42.528;26.740;2023-07-28T07:00:43;99754.63;;;35.54;19.87
60019;BME280;45870;42.528;26.740;2023-07-28T07:03:09;99752.34;;;37.66;18.31
60019;BME280;45870;42.528;26.740;2023-07-28T07:05:35;99716.34;;;37.39;17.66
60019;BME280;45870;42.528;26.740;2023-07-28T07:08:01;99754.66;;;36.15;20.43
60019;BME280;45870;42.528;26.740;2023-07-28T07:10:27;99752.59;;;36.36;19.99
60019;BME280;45870;42.528;26.740;2023-07-28T07:12:53;99755.88;;;38.92;16.79
60019;BME280;45870;42.528;26.740;2023-07-28T07:15:18;99719.00;;;38.76;16.31
60019;BME280;45870;42.528;26.740;2023-07-28T07:17:44;99695.50;;;39.63;14.16
60019;BME280;45870;42.528;26.740;2023-07-28T07:20:10;99753.63;;;40.54;16.12
60019;BME280;45870;42.528;26.740;2023-07-28T07:22:36;99752.56;;;38.30;17.79
60019;BME280;45870;42.528;26.740;2023-07-28T07:25:03;99735.31;;;37.28;16.28
60019;BME280;45870;42.528;26.740;2023-07-28T07:27:29;99753.28;;;37.45;17.13
60019;BME280;45870;42.528;26.740;2023-07-28T07:29:55;99739.66;;;37.40;16.26
60019;BME280;45870;42.528;26.740;2023-07-28T07:32:20;99699.66;;;36.14;18.14
60019;BME280;45870;42.528;26.740;2023-07-28T07:34:46;99714.09;;;35.17;18.51
60019;BME280;45870;42.528;26.740;2023-07-28T07:37:12;99704.84;;;37.13;16.72
60019;BME280;45870;42.528;26.740;2023-07-28T07:39:38;99738.09;;;35.10;17.70
60019;BME280;45870;42.528;26.740;2023-07-28T07:42:06;99740.78;;;38.42;17.27
60019;BME280;45870;42.528;26.740;2023-07-28T07:44:32;99737.72;;;37.26;17.00
60019;BME280;45870;42.528;26.740;2023-07-28T07:47:00;99741.66;;;37.43;16.60
60019;BME280;45870;42.528;26.740;2023-07-28T07:49:25;99729.34;;;36.00;17.65
60019;BME280;45870;42.528;26.740;2023-07-28T07:51:51;99742.63;;;35.68;17.92
60019;BME280;45870;42.528;26.740;2023-07-28T07:54:17;99731.78;;;38.54;16.16
60019;BME280;45870;42.528;26.740;2023-07-28T07:56:44;99741.22;;;40.05;14.09
60019;BME280;45870;42.528;26.740;2023-07-28T07:59:11;99732.03;;;36.61;18.59
60019;BME280;45870;42.528;26.740;2023-07-28T08:01:37;99731.00;;;38.13;15.99
60019;BME280;45870;42.528;26.740;2023-07-28T08:04:03;99739.28;;;40.45;17.89
60019;BME280;45870;42.528;26.740;2023-07-28T08:06:29;99739.28;;;37.34;18.08
60019;BME280;45870;42.528;26.740;2023-07-28T08:08:54;99739.38;;;36.19;19.79
60019;BME280;45870;42.528;26.740;2023-07-28T08:11:22;99744.72;;;37.63;17.83
60019;BME280;45870;42.528;26.740;2023-07-28T08:13:48;99690.28;;;37.28;17.13
60019;BME280;45870;42.528;26.740;2023-07-28T08:16:14;99740.81;;;37.97;17.28
60019;BME280;45870;42.528;26.740;2023-07-28T08:18:39;99747.72;;;36.51;18.08
60019;BME280;45870;42.528;26.740;2023-07-28T08:21:05;99624.69;;;36.76;15.79
60019;BME280;45870;42.528;26.740;2023-07-28T08:23:31;99733.47;;;37.00;16.34
60019;BME280;45870;42.528;26.740;2023-07-28T08:25:56;99734.72;;;36.92;17.21
60019;BME280;45870;42.528;26.740;2023-07-28T08:28:22;99725.56;;;39.54;15.48
60019;BME280;45870;42.528;26.740;2023-07-28T08:30:55;99732.22;;;40.92;13.35
60019;BME280;45870;42.528;26.740;2023-07-28T08:33:22;99708.78;;;36.42;17.27
60019;BME280;45870;42.528;26.740;2023-07-28T08:35:47;99723.13;;;36.80;15.57
60019;BME280;45870;42.528;26.740;2023-07-28T08:38:13;99716.88;;;39.41;14.31
60019;BME280;45870;42.528;26.740;2023-07-28T08:40:40;99722.31;;;39.78;14.82
60019;BME280;45870;42.528;26.740;2023-07-28T08:43:06;99719.69;;;40.73;13.23
60019;BME280;45870;42.528;26.740;2023-07-28T08:45:31;99700.06;;;36.09;15.55
60019;BME280;45870;42.528;26.740;2023-07-28T08:47:57;99725.91;;;37.53;16.28
60019;BME280;45870;42.528;26.740;2023-07-28T08:50:25;99607.41;;;35.84;17.15
60019;BME280;45870;42.528;26.740;2023-07-28T08:52:50;99712.00;;;37.28;15.17
60019;BME280;45870;42.528;26.740;2023-07-28T08:55:16;99709.75;;;40.46;13.54
60019;BME280;45870;42.528;26.740;2023-07-28T08:57:42;99701.63;;;36.27;16.61
60019;BME280;45870;42.528;26.740;2023-07-28T09:00:12;99707.63;;;39.87;14.11
60019;BME280;45870;42.528;26.740;2023-07-28T09:02:40;99700.28;;;36.67;15.59
60019;BME280;45870;42.528;26.740;2023-07-28T09:05:06;99691.50;;;36.58;16.45
60019;BME280;45870;42.528;26.740;2023-07-28T09:07:36;99690.41;;;39.05;15.25
60019;BME280;45870;42.528;26.740;2023-07-28T09:10:03;99681.63;;;38.35;16.91
60019;BME280;45870;42.528;26.740;2023-07-28T09:12:33;99692.75;;;38.79;15.04
60019;BME280;45870;42.528;26.740;2023-07-28T09:15:01;99691.97;;;40.84;13.51
60019;BME280;45870;42.528;26.740;2023-07-28T09:17:32;99691.78;;;40.92;13.97
60019;BME280;45870;42.528;26.740;2023-07-28T09:20:07;99660.09;;;40.25;13.82
60019;BME280;45870;42.528;26.740;2023-07-28T09:22:36;99662.56;;;41.30;14.78
60019;BME280;45870;42.528;26.740;2023-07-28T09:25:11;99662.16;;;38.14;17.87
60019;BME280;45870;42.528;26.740;2023-07-28T09:27:38;99685.06;;;36.47;17.31
60019;BME280;45870;42.528;26.740;2023-07-28T09:30:04;99679.94;;;38.71;18.10
60019;BME280;45870;42.528;26.740;2023-07-28T09:32:32;99671.72;;;38.87;16.15
60019;BME280;45870;42.528;26.740;2023-07-28T09:35:10;99674.84;;;40.13;13.54
60019;BME280;45870;42.528;26.740;2023-07-28T09:37:41;99667.94;;;36.13;17.95
60019;BME280;45870;42.528;26.740;2023-07-28T09:40:12;99669.25;;;38.59;15.55
60019;BME280;45870;42.528;26.740;2023-07-28T09:42:45;99676.41;;;39.21;16.82
60019;BME280;45870;42.528;26.740;2023-07-28T09:45:18;99681.22;;;41.28;14.09
60019;BME280;45870;42.528;26.740;2023-07-28T09:47:48;99630.00;;;40.51;13.03
60019;BME280;45870;42.528;26.740;2023-07-28T09:50:17;99659.19;;;37.42;15.17
60019;BME280;45870;42.528;26.740;2023-07-28T09:52:46;99657.94;;;36.88;17.46
60019;BME280;45870;42.528;26.740;2023-07-28T09:55:12;99635.50;;;35.06;16.91
60019;BME280;45870;42.528;26.740;2023-07-28T09:57:51;99660.28;;;34.65;17.32
60019;BME280;45870;42.528;26.740;2023-07-28T10:00:18;99662.56;;;37.23;15.91
60019;BME280;45870;42.528;26.740;2023-07-28T10:02:44;99650.69;;;37.01;15.67
60019;BME280;45870;42.528;26.740;2023-07-28T10:05:10;99656.25;;;38.65;15.23
60019;BME280;45870;42.528;26.740;2023-07-28T10:07:38;99661.22;;;40.67;12.96
60019;BME280;45870;42.528;26.740;2023-07-28T10:10:06;99650.59;;;39.72;12.40
60019;BME280;45870;42.528;26.740;2023-07-28T10:12:53;99661.53;;;36.02;16.30
60019;BME280;45870;42.528;26.740;2023-07-28T10:15:22;99653.09;;;34.85;16.24
60019;BME280;45870;42.528;26.740;2023-07-28T10:17:55;99648.50;;;38.09;13.62
60019;BME280;45870;42.528;26.740;2023-07-28T10:20:27;99650.09;;;37.24;14.62
60019;BME280;45870;42.528;26.740;2023-07-28T10:22:53;99632.38;;;37.27;16.47
60019;BME280;45870;42.528;26.740;2023-07-28T10:25:23;99642.44;;;36.66;16.88
60019;BME280;45870;42.528;26.740;2023-07-28T10:27:51;99639.31;;;38.38;14.76
60019;BME280;45870;42.528;26.740;2023-07-28T10:30:17;99632.09;;;41.18;12.40
60019;BME280;45870;42.528;26.740;2023-07-28T10:32:48;99626.91;;;38.89;15.86
60019;BME280;45870;42.528;26.740;2023-07-28T10:37:44;99628.28;;;35.47;16.98
60019;BME280;45870;42.528;26.740;2023-07-28T10:40:28;99586.88;;;37.32;17.03
60019;BME280;45870;42.528;26.740;2023-07-28T10:42:55;99626.19;;;36.12;16.96
60019;BME280;45870;42.528;26.740;2023-07-28T10:45:26;99625.91;;;36.75;15.49
60019;BME280;45870;42.528;26.740;2023-07-28T10:47:53;99617.47;;;35.74;18.40
60019;BME280;45870;42.528;26.740;2023-07-28T10:50:27;99614.50;;;34.36;18.24
60019;BME280;45870;42.528;26.740;2023-07-28T10:52:53;99609.31;;;34.45;17.84
60019;BME280;45870;42.528;26.740;2023-07-28T10:55:24;99609.94;;;34.10;19.37
60019;BME280;45870;42.528;26.740;2023-07-28T10:57:52;99591.31;;;32.35;21.06
60019;BME280;45870;42.528;26.740;2023-07-28T11:00:20;99568.16;;;33.67;20.37
60019;BME280;45870;42.528;26.740;2023-07-28T11:02:54;99599.03;;;35.38;20.17
60019;BME280;45870;42.528;26.740;2023-07-28T11:05:21;99575.63;;;33.52;20.87
60019;BME280;45870;42.528;26.740;2023-07-28T11:07:49;99591.31;;;34.46;18.89
60019;BME280;45870;42.528;26.740;2023-07-28T11:10:15;99588.41;;;34.22;22.07
60019;BME280;45870;42.528;26.740;2023-07-28T11:12:47;99582.56;;;35.40;18.97
60019;BME280;45870;42.528;26.740;2023-07-28T11:15:15;99582.59;;;34.76;18.32
60019;BME280;45870;42.528;26.740;2023-07-28T11:17:44;99579.00;;;35.39;17.90
60019;BME280;45870;42.528;26.740;2023-07-28T11:20:15;99575.41;;;35.14;16.70
60019;BME280;45870;42.528;26.740;2023-07-28T11:22:52;99540.28;;;33.91;20.82
60019;BME280;45870;42.528;26.740;2023-07-28T11:25:18;99567.78;;;35.07;19.84
60019;BME280;45870;42.528;26.740;2023-07-28T11:27:47;99563.63;;;35.93;17.14
60019;BME280;45870;42.528;26.740;2023-07-28T11:30:14;99549.53;;;34.02;17.09
60019;BME280;45870;42.528;26.740;2023-07-28T11:32:44;99548.59;;;33.15;18.75
60019;BME280;45870;42.528;26.740;2023-07-28T11:35:13;99555.25;;;33.55;18.00
60019;BME280;45870;42.528;26.740;2023-07-28T11:37:40;99562.03;;;34.30;21.54
60019;BME280;45870;42.528;26.740;2023-07-28T11:40:08;99556.31;;;34.01;19.00
60019;BME280;45870;42.528;26.740;2023-07-28T11:42:41;99547.78;;;33.73;17.77
60019;BME280;45870;42.528;26.740;2023-07-28T11:45:10;99540.09;;;34.74;18.70
60019;BME280;45870;42.528;26.740;2023-07-28T11:47:37;99513.19;;;34.31;19.70
60019;BME280;45870;42.528;26.740;2023-07-28T11:50:03;99551.72;;;35.36;18.63
60019;BME280;45870;42.528;26.740;2023-07-28T11:52:31;99528.50;;;34.97;18.73
60019;BME280;45870;42.528;26.740;2023-07-28T11:54:59;99543.00;;;33.74;20.37
60019;BME280;45870;42.528;26.740;2023-07-28T11:57:26;99539.31;;;34.95;16.92
60019;BME280;45870;42.528;26.740;2023-07-28T11:59:53;99536.28;;;32.80;19.60
60019;BME280;45870;42.528;26.740;2023-07-28T12:02:27;99530.88;;;34.77;17.52
60019;BME280;45870;42.528;26.740;2023-07-28T12:04:53;99523.28;;;33.59;18.73
60019;BME280;45870;42.528;26.740;2023-07-28T12:07:30;99528.59;;;33.75;18.56
60019;BME280;45870;42.528;26.740;2023-07-28T12:09:56;99530.72;;;34.10;20.20
60019;BME280;45870;42.528;26.740;2023-07-28T12:12:30;99526.75;;;34.15;21.00
60019;BME280;45870;42.528;26.740;2023-07-28T12:15:00;99495.66;;;34.83;20.62
60019;BME280;45870;42.528;26.740;2023-07-28T12:17:30;99526.00;;;34.39;18.05
60019;BME280;45870;42.528;26.740;2023-07-28T12:20:05;99523.66;;;34.55;19.79
60019;BME280;45870;42.528;26.740;2023-07-28T12:22:44;99522.88;;;35.36;19.15
60019;BME280;45870;42.528;26.740;2023-07-28T12:25:11;99511.22;;;35.34;18.08
60019;BME280;45870;42.528;26.740;2023-07-28T12:27:37;99476.25;;;35.70;16.41
60019;BME280;45870;42.528;26.740;2023-07-28T12:30:04;99510.41;;;35.44;17.50
60019;BME280;45870;42.528;26.740;2023-07-28T12:32:30;99502.03;;;35.16;16.91
60019;BME280;45870;42.528;26.740;2023-07-28T12:34:55;99502.03;;;34.77;18.93
60019;BME280;45870;42.528;26.740;2023-07-28T12:37:22;99488.63;;;33.89;19.73
60019;BME280;45870;42.528;26.740;2023-07-28T12:39:49;99490.81;;;34.87;19.78
60019;BME280;45870;42.528;26.740;2023-07-28T12:42:15;99488.38;;;34.29;17.27
60019;BME280;45870;42.528;26.740;2023-07-28T12:44:41;99499.38;;;36.02;17.52
60019;BME280;45870;42.528;26.740;2023-07-28T12:47:08;99495.63;;;35.19;16.86
60019;BME280;45870;42.528;26.740;2023-07-28T12:49:34;99491.91;;;35.68;17.11
60019;BME280;45870;42.528;26.740;2023-07-28T12:52:05;99489.91;;;35.54;17.47
60019;BME280;45870;42.528;26.740;2023-07-28T12:54:34;99478.84;;;34.66;17.87
60019;BME280;45870;42.528;26.740;2023-07-28T12:57:01;99480.72;;;35.50;18.51